sensor_id;sensor_type;location;lat;lon;timestamp;temperature;humidity
7902;DHT22;3996;49.674;10.716;2023-04-01T00:00:21;9.60;54.10
7902;DHT22;3996;49.674;10.716;2023-04-01T00:02:47;9.60;54.10
7902;DHT22;3996;49.674;10.716;2023-04-01T00:05:12;9.60;53.50
7902;DHT22;3996;49.674;10.716;2023-04-01T00:07:38;9.70;53.60
7902;DHT22;3996;49.674;10.716;2023-04-01T00:10:05;9.70;53.10
7902;DHT22;3996;49.674;10.716;2023-04-01T00:12:31;9.80;53.80
7902;DHT22;3996;49.674;10.716;2023-04-01T00:14:57;9.80;53.40
7902;DHT22;3996;49.674;10.716;2023-04-01T00:17:22;9.80;53.70
7902;DHT22;3996;49.674;10.716;2023-04-01T00:19:48;9.70;54.60
7902;DHT22;3996;49.674;10.716;2023-04-01T00:22:13;9.80;53.60
7902;DHT22;3996;49.674;10.716;2023-04-01T00:24:39;9.80;54.40
7902;DHT22;3996;49.674;10.716;2023-04-01T00:27:04;9.80;54.60
7902;DHT22;3996;49.674;10.716;2023-04-01T00:29:30;9.80;55.20
7902;DHT22;3996;49.674;10.716;2023-04-01T00:31:57;9.80;55.20
7902;DHT22;3996;49.674;10.716;2023-04-01T00:34:23;9.80;56.10
7902;DHT22;3996;49.674;10.716;2023-04-01T00:36:49;9.80;55.70
7902;DHT22;3996;49.674;10.716;2023-04-01T00:39:15;9.80;56.30
7902;DHT22;3996;49.674;10.716;2023-04-01T00:41:41;9.80;57.00
7902;DHT22;3996;49.674;10.716;2023-04-01T00:46:44;9.70;56.90
7902;DHT22;3996;49.674;10.716;2023-04-01T00:49:10;9.70;57.10
7902;DHT22;3996;49.674;10.716;2023-04-01T00:51:35;9.70;57.50
7902;DHT22;3996;49.674;10.716;2023-04-01T00:54:03;9.80;56.50
7902;DHT22;3996;49.674;10.716;2023-04-01T00:56:39;9.80;56.00
7902;DHT22;3996;49.674;10.716;2023-04-01T00:59:09;9.70;56.00
7902;DHT22;3996;49.674;10.716;2023-04-01T01:01:36;9.70;54.90
7902;DHT22;3996;49.674;10.716;2023-04-01T01:04:01;9.80;53.10
7902;DHT22;3996;49.674;10.716;2023-04-01T01:14:10;9.90;52.20
7902;DHT22;3996;49.674;10.716;2023-04-01T01:16:42;9.90;52.00
7902;DHT22;3996;49.674;10.716;2023-04-01T01:19:12;9.90;52.70
7902;DHT22;3996;49.674;10.716;2023-04-01T01:24:25;9.90;51.50
7902;DHT22;3996;49.674;10.716;2023-04-01T01:26:54;9.90;51.10
7902;DHT22;3996;49.674;10.716;2023-04-01T01:31:54;9.90;50.10
7902;DHT22;3996;49.674;10.716;2023-04-01T01:36:50;10.00;48.20
7902;DHT22;3996;49.674;10.716;2023-04-01T01:39:17;10.00;47.80
7902;DHT22;3996;49.674;10.716;2023-04-01T01:41:43;9.90;49.30
7902;DHT22;3996;49.674;10.716;2023-04-01T01:44:12;10.00;47.90
7902;DHT22;3996;49.674;10.716;2023-04-01T01:46:39;10.00;47.30
7902;DHT22;3996;49.674;10.716;2023-04-01T01:49:06;10.00;46.20
7902;DHT22;3996;49.674;10.716;2023-04-01T01:51:32;10.00;46.50
7902;DHT22;3996;49.674;10.716;2023-04-01T01:53:58;10.00;45.50
7902;DHT22;3996;49.674;10.716;2023-04-01T01:56:25;10.00;45.10
7902;DHT22;3996;49.674;10.716;2023-04-01T01:58:53;10.00;45.40
7902;DHT22;3996;49.674;10.716;2023-04-01T02:01:22;10.00;45.20
7902;DHT22;3996;49.674;10.716;2023-04-01T02:03:49;10.00;44.80
7902;DHT22;3996;49.674;10.716;2023-04-01T02:06:17;10.00;44.20
7902;DHT22;3996;49.674;10.716;2023-04-01T02:08:56;10.00;44.40
7902;DHT22;3996;49.674;10.716;2023-04-01T02:11:27;10.00;44.80
7902;DHT22;3996;49.674;10.716;2023-04-01T02:14:05;10.00;44.20
7902;DHT22;3996;49.674;10.716;2023-04-01T02:16:47;10.00;43.40
7902;DHT22;3996;49.674;10.716;2023-04-01T02:19:15;10.00;43.30
7902;DHT22;3996;49.674;10.716;2023-04-01T02:21:41;10.00;43.10
7902;DHT22;3996;49.674;10.716;2023-04-01T02:24:08;10.00;44.50
7902;DHT22;3996;49.674;10.716;2023-04-01T02:26:34;9.90;44.70
7902;DHT22;3996;49.674;10.716;2023-04-01T02:29:00;10.00;43.60
7902;DHT22;3996;49.674;10.716;2023-04-01T02:31:26;10.00;44.00
7902;DHT22;3996;49.674;10.716;2023-04-01T02:33:52;10.00;43.30
7902;DHT22;3996;49.674;10.716;2023-04-01T02:36:18;10.00;43.00
7902;DHT22;3996;49.674;10.716;2023-04-01T02:38:44;10.00;42.60
7902;DHT22;3996;49.674;10.716;2023-04-01T02:41:10;9.90;44.00
7902;DHT22;3996;49.674;10.716;2023-04-01T02:43:36;9.90;44.20
7902;DHT22;3996;49.674;10.716;2023-04-01T02:46:02;9.90;44.50
7902;DHT22;3996;49.674;10.716;2023-04-01T02:48:28;9.90;44.50
7902;DHT22;3996;49.674;10.716;2023-04-01T02:50:53;9.80;44.40
7902;DHT22;3996;49.674;10.716;2023-04-01T02:53:19;9.80;45.10
7902;DHT22;3996;49.674;10.716;2023-04-01T02:55:44;9.90;44.70
7902;DHT22;3996;49.674;10.716;2023-04-01T02:58:10;9.90;45.00
7902;DHT22;3996;49.674;10.716;2023-04-01T03:00:36;9.80;45.60
7902;DHT22;3996;49.674;10.716;2023-04-01T03:03:01;9.90;44.40
7902;DHT22;3996;49.674;10.716;2023-04-01T03:05:28;9.90;45.00
7902;DHT22;3996;49.674;10.716;2023-04-01T03:07:53;9.90;44.60
7902;DHT22;3996;49.674;10.716;2023-04-01T03:10:19;9.90;44.00
7902;DHT22;3996;49.674;10.716;2023-04-01T03:12:44;10.00;43.60
7902;DHT22;3996;49.674;10.716;2023-04-01T03:15:10;9.90;44.30
7902;DHT22;3996;49.674;10.716;2023-04-01T03:17:37;10.00;42.80
7902;DHT22;3996;49.674;10.716;2023-04-01T03:20:02;10.00;43.00
7902;DHT22;3996;49.674;10.716;2023-04-01T03:22:30;9.90;44.70
7902;DHT22;3996;49.674;10.716;2023-04-01T03:24:55;9.90;43.70
7902;DHT22;3996;49.674;10.716;2023-04-01T03:27:21;9.90;43.90
7902;DHT22;3996;49.674;10.716;2023-04-01T03:29:46;10.00;43.70
7902;DHT22;3996;49.674;10.716;2023-04-01T03:32:12;10.00;43.30
7902;DHT22;3996;49.674;10.716;2023-04-01T03:34:37;10.00;43.10
7902;DHT22;3996;49.674;10.716;2023-04-01T03:37:03;9.90;44.70
7902;DHT22;3996;49.674;10.716;2023-04-01T03:39:28;9.90;45.00
7902;DHT22;3996;49.674;10.716;2023-04-01T03:41:54;9.90;44.60
7902;DHT22;3996;49.674;10.716;2023-04-01T03:44:19;9.90;44.30
7902;DHT22;3996;49.674;10.716;2023-04-01T03:46:45;9.90;44.40
7902;DHT22;3996;49.674;10.716;2023-04-01T03:49:10;9.90;43.60
7902;DHT22;3996;49.674;10.716;2023-04-01T03:51:39;9.90;43.90
7902;DHT22;3996;49.674;10.716;2023-04-01T03:54:05;9.80;44.40
7902;DHT22;3996;49.674;10.716;2023-04-01T03:56:31;9.80;44.60
7902;DHT22;3996;49.674;10.716;2023-04-01T03:58:57;9.90;44.10
7902;DHT22;3996;49.674;10.716;2023-04-01T04:01:22;9.90;43.50
7902;DHT22;3996;49.674;10.716;2023-04-01T04:03:48;9.90;44.20
7902;DHT22;3996;49.674;10.716;2023-04-01T04:06:16;9.90;44.10
7902;DHT22;3996;49.674;10.716;2023-04-01T04:08:42;9.80;44.00
7902;DHT22;3996;49.674;10.716;2023-04-01T04:11:08;9.80;43.10
7902;DHT22;3996;49.674;10.716;2023-04-01T04:13:33;9.90;42.60
7902;DHT22;3996;49.674;10.716;2023-04-01T04:15:59;9.90;42.90
7902;DHT22;3996;49.674;10.716;2023-04-01T04:18:24;9.90;43.80
7902;DHT22;3996;49.674;10.716;2023-04-01T04:20:50;9.80;44.40
7902;DHT22;3996;49.674;10.716;2023-04-01T04:23:16;9.80;45.70
7902;DHT22;3996;49.674;10.716;2023-04-01T04:25:52;9.80;45.80
7902;DHT22;3996;49.674;10.716;2023-04-01T04:28:18;9.70;46.50
7902;DHT22;3996;49.674;10.716;2023-04-01T04:30:43;9.70;47.60
7902;DHT22;3996;49.674;10.716;2023-04-01T04:33:09;9.70;47.30
7902;DHT22;3996;49.674;10.716;2023-04-01T04:35:35;9.70;46.90
7902;DHT22;3996;49.674;10.716;2023-04-01T04:38:00;9.70;46.20
7902;DHT22;3996;49.674;10.716;2023-04-01T04:40:26;9.70;47.50
7902;DHT22;3996;49.674;10.716;2023-04-01T04:42:51;9.60;47.80
7902;DHT22;3996;49.674;10.716;2023-04-01T04:45:16;9.60;47.30
7902;DHT22;3996;49.674;10.716;2023-04-01T04:47:42;9.70;46.10
7902;DHT22;3996;49.674;10.716;2023-04-01T04:50:08;9.70;47.10
7902;DHT22;3996;49.674;10.716;2023-04-01T04:52:33;9.60;47.90
7902;DHT22;3996;49.674;10.716;2023-04-01T04:54:59;9.60;48.40
7902;DHT22;3996;49.674;10.716;2023-04-01T04:57:25;9.60;47.90
7902;DHT22;3996;49.674;10.716;2023-04-01T04:59:50;9.60;49.00
7902;DHT22;3996;49.674;10.716;2023-04-01T05:02:16;9.60;47.40
7902;DHT22;3996;49.674;10.716;2023-04-01T05:04:41;9.50;48.40
7902;DHT22;3996;49.674;10.716;2023-04-01T05:07:07;9.50;47.50
7902;DHT22;3996;49.674;10.716;2023-04-01T05:09:32;9.60;48.40
7902;DHT22;3996;49.674;10.716;2023-04-01T05:11:59;9.60;47.70
7902;DHT22;3996;49.674;10.716;2023-04-01T05:14:24;9.60;48.00
7902;DHT22;3996;49.674;10.716;2023-04-01T05:16:50;9.60;47.80
7902;DHT22;3996;49.674;10.716;2023-04-01T05:19:15;9.60;48.40
7902;DHT22;3996;49.674;10.716;2023-04-01T05:21:41;9.50;49.10
7902;DHT22;3996;49.674;10.716;2023-04-01T05:24:09;9.50;48.30
7902;DHT22;3996;49.674;10.716;2023-04-01T05:26:35;9.50;49.40
7902;DHT22;3996;49.674;10.716;2023-04-01T05:29:02;9.50;48.80
7902;DHT22;3996;49.674;10.716;2023-04-01T05:31:28;9.50;49.30
7902;DHT22;3996;49.674;10.716;2023-04-01T05:33:53;9.50;49.80
7902;DHT22;3996;49.674;10.716;2023-04-01T05:36:19;9.40;50.70
7902;DHT22;3996;49.674;10.716;2023-04-01T05:38:44;9.60;51.20
7902;DHT22;3996;49.674;10.716;2023-04-01T05:41:13;9.70;49.90
7902;DHT22;3996;49.674;10.716;2023-04-01T05:43:39;9.70;49.90
7902;DHT22;3996;49.674;10.716;2023-04-01T05:46:05;9.70;51.70
7902;DHT22;3996;49.674;10.716;2023-04-01T05:48:30;9.70;52.90
7902;DHT22;3996;49.674;10.716;2023-04-01T05:50:56;9.70;50.90
7902;DHT22;3996;49.674;10.716;2023-04-01T05:53:21;9.70;51.30
7902;DHT22;3996;49.674;10.716;2023-04-01T05:55:47;9.70;50.30
7902;DHT22;3996;49.674;10.716;2023-04-01T05:58:13;9.60;50.60
7902;DHT22;3996;49.674;10.716;2023-04-01T06:00:38;9.60;51.70
7902;DHT22;3996;49.674;10.716;2023-04-01T06:03:04;9.50;50.50
7902;DHT22;3996;49.674;10.716;2023-04-01T06:05:30;9.60;51.50
7902;DHT22;3996;49.674;10.716;2023-04-01T06:08:11;9.60;51.10
7902;DHT22;3996;49.674;10.716;2023-04-01T06:10:43;9.60;51.00
7902;DHT22;3996;49.674;10.716;2023-04-01T06:13:12;9.60;50.30
7902;DHT22;3996;49.674;10.716;2023-04-01T06:16:45;9.70;49.90
7902;DHT22;3996;49.674;10.716;2023-04-01T06:18:40;9.70;50.20
7902;DHT22;3996;49.674;10.716;2023-04-01T06:31:36;9.80;49.10
7902;DHT22;3996;49.674;10.716;2023-04-01T06:49:58;9.80;51.10
7902;DHT22;3996;49.674;10.716;2023-04-01T06:52:46;9.90;50.90
7902;DHT22;3996;49.674;10.716;2023-04-01T06:55:57;9.90;50.10
7902;DHT22;3996;49.674;10.716;2023-04-01T06:58:04;9.90;51.00
7902;DHT22;3996;49.674;10.716;2023-04-01T07:00:40;9.90;50.60
7902;DHT22;3996;49.674;10.716;2023-04-01T07:03:21;10.00;49.00
7902;DHT22;3996;49.674;10.716;2023-04-01T07:05:48;10.10;49.30
7902;DHT22;3996;49.674;10.716;2023-04-01T07:08:17;10.10;49.30
7902;DHT22;3996;49.674;10.716;2023-04-01T07:10:45;10.10;47.40
7902;DHT22;3996;49.674;10.716;2023-04-01T07:13:14;10.20;48.00
7902;DHT22;3996;49.674;10.716;2023-04-01T07:15:41;10.20;49.00
7902;DHT22;3996;49.674;10.716;2023-04-01T07:18:17;10.30;45.90
7902;DHT22;3996;49.674;10.716;2023-04-01T07:20:44;10.30;44.80
7902;DHT22;3996;49.674;10.716;2023-04-01T07:25:48;10.50;45.30
7902;DHT22;3996;49.674;10.716;2023-04-01T07:28:16;10.60;43.40
7902;DHT22;3996;49.674;10.716;2023-04-01T07:35:56;10.60;43.40
7902;DHT22;3996;49.674;10.716;2023-04-01T07:41:15;10.70;41.10
7902;DHT22;3996;49.674;10.716;2023-04-01T07:46:13;10.70;41.90
7902;DHT22;3996;49.674;10.716;2023-04-01T07:51:22;10.80;40.60
7902;DHT22;3996;49.674;10.716;2023-04-01T07:56:28;10.90;39.80
7902;DHT22;3996;49.674;10.716;2023-04-01T08:01:36;11.40;38.60
7902;DHT22;3996;49.674;10.716;2023-04-01T08:04:08;11.30;39.60
7902;DHT22;3996;49.674;10.716;2023-04-01T08:11:43;11.00;40.10
7902;DHT22;3996;49.674;10.716;2023-04-01T08:21:54;10.80;40.80
7902;DHT22;3996;49.674;10.716;2023-04-01T08:27:06;10.90;41.70
7902;DHT22;3996;49.674;10.716;2023-04-01T08:29:37;10.80;41.20
7902;DHT22;3996;49.674;10.716;2023-04-01T08:34:32;10.80;43.40
7902;DHT22;3996;49.674;10.716;2023-04-01T08:37:00;10.70;44.80
7902;DHT22;3996;49.674;10.716;2023-04-01T08:39:37;10.60;45.40
7902;DHT22;3996;49.674;10.716;2023-04-01T08:42:25;10.50;45.10
7902;DHT22;3996;49.674;10.716;2023-04-01T08:55:37;10.40;48.00
7902;DHT22;3996;49.674;10.716;2023-04-01T09:00:33;10.40;47.70
7902;DHT22;3996;49.674;10.716;2023-04-01T09:03:36;10.40;48.80
7902;DHT22;3996;49.674;10.716;2023-04-01T09:08:31;10.50;48.90
7902;DHT22;3996;49.674;10.716;2023-04-01T09:11:11;10.50;50.00
7902;DHT22;3996;49.674;10.716;2023-04-01T09:36:46;10.50;56.60
7902;DHT22;3996;49.674;10.716;2023-04-01T09:49:34;10.70;56.60
7902;DHT22;3996;49.674;10.716;2023-04-01T09:59:36;10.50;58.50
7902;DHT22;3996;49.674;10.716;2023-04-01T10:02:23;10.30;60.40
7902;DHT22;3996;49.674;10.716;2023-04-01T10:36:54;10.20;68.20
7902;DHT22;3996;49.674;10.716;2023-04-01T10:39:31;10.20;66.10
7902;DHT22;3996;49.674;10.716;2023-04-01T10:57:16;10.10;67.10
7902;DHT22;3996;49.674;10.716;2023-04-01T11:07:49;10.20;66.40
7902;DHT22;3996;49.674;10.716;2023-04-01T11:13:13;10.40;70.80
7902;DHT22;3996;49.674;10.716;2023-04-01T11:20:45;10.50;66.10
7902;DHT22;3996;49.674;10.716;2023-04-01T11:41:02;10.30;69.40
7902;DHT22;3996;49.674;10.716;2023-04-01T11:46:11;10.40;72.40
7902;DHT22;3996;49.674;10.716;2023-04-01T11:51:16;10.40;69.00
7902;DHT22;3996;49.674;10.716;2023-04-01T11:53:54;10.40;68.90
7902;DHT22;3996;49.674;10.716;2023-04-01T12:22:16;10.40;72.70
7902;DHT22;3996;49.674;10.716;2023-04-01T12:24:49;10.40;69.80
7902;DHT22;3996;49.674;10.716;2023-04-01T12:27:23;10.40;70.30
7902;DHT22;3996;49.674;10.716;2023-04-01T12:50:42;10.50;72.80
7902;DHT22;3996;49.674;10.716;2023-04-01T12:55:55;10.60;75.10
7902;DHT22;3996;49.674;10.716;2023-04-01T13:06:20;10.50;75.30
7902;DHT22;3996;49.674;10.716;2023-04-01T13:09:00;10.40;75.50
7902;DHT22;3996;49.674;10.716;2023-04-01T13:11:34;10.40;75.80
7902;DHT22;3996;49.674;10.716;2023-04-01T13:14:08;10.50;77.40
7902;DHT22;3996;49.674;10.716;2023-04-01T13:17:02;10.50;77.70
7902;DHT22;3996;49.674;10.716;2023-04-01T13:19:30;10.60;77.30
7902;DHT22;3996;49.674;10.716;2023-04-01T13:24:40;10.50;77.70
7902;DHT22;3996;49.674;10.716;2023-04-01T13:29:38;10.40;75.50
7902;DHT22;3996;49.674;10.716;2023-04-01T13:37:40;10.50;77.50
7902;DHT22;3996;49.674;10.716;2023-04-01T13:42:53;10.50;77.00
7902;DHT22;3996;49.674;10.716;2023-04-01T13:45:26;10.50;77.90
7902;DHT22;3996;49.674;10.716;2023-04-01T13:48:02;10.40;78.60
7902;DHT22;3996;49.674;10.716;2023-04-01T13:51:12;10.50;78.60
7902;DHT22;3996;49.674;10.716;2023-04-01T14:10:04;10.50;79.00
7902;DHT22;3996;49.674;10.716;2023-04-01T14:12:42;10.50;80.30
7902;DHT22;3996;49.674;10.716;2023-04-01T14:18:51;10.40;78.00
7902;DHT22;3996;49.674;10.716;2023-04-01T14:29:24;10.30;77.80
7902;DHT22;3996;49.674;10.716;2023-04-01T14:50:23;10.30;79.50
7902;DHT22;3996;49.674;10.716;2023-04-01T14:55:20;10.40;79.30
7902;DHT22;3996;49.674;10.716;2023-04-01T14:57:57;10.40;78.20
7902;DHT22;3996;49.674;10.716;2023-04-01T15:00:23;10.40;78.10
7902;DHT22;3996;49.674;10.716;2023-04-01T15:03:02;10.30;79.20
7902;DHT22;3996;49.674;10.716;2023-04-01T15:18:45;10.40;78.00
7902;DHT22;3996;49.674;10.716;2023-04-01T15:21:20;10.40;77.70
7902;DHT22;3996;49.674;10.716;2023-04-01T15:24:00;10.40;78.30
7902;DHT22;3996;49.674;10.716;2023-04-01T15:26:31;10.40;78.40
7902;DHT22;3996;49.674;10.716;2023-04-01T15:29:11;10.30;77.70
7902;DHT22;3996;49.674;10.716;2023-04-01T15:31:59;10.30;77.30
7902;DHT22;3996;49.674;10.716;2023-04-01T15:34:38;10.30;77.60
7902;DHT22;3996;49.674;10.716;2023-04-01T15:37:20;10.20;78.70
7902;DHT22;3996;49.674;10.716;2023-04-01T15:44:55;10.10;78.50
7902;DHT22;3996;49.674;10.716;2023-04-01T15:49:53;10.10;77.40
7902;DHT22;3996;49.674;10.716;2023-04-01T15:52:24;10.10;77.40
7902;DHT22;3996;49.674;10.716;2023-04-01T16:02:50;10.10;77.40
7902;DHT22;3996;49.674;10.716;2023-04-01T16:10:49;10.00;77.30
7902;DHT22;3996;49.674;10.716;2023-04-01T16:13:40;10.10;77.20
7902;DHT22;3996;49.674;10.716;2023-04-01T16:21:38;10.10;75.40
7902;DHT22;3996;49.674;10.716;2023-04-01T16:24:22;10.10;75.80
7902;DHT22;3996;49.674;10.716;2023-04-01T16:26:50;10.10;76.60
7902;DHT22;3996;49.674;10.716;2023-04-01T16:29:20;10.00;76.60
7902;DHT22;3996;49.674;10.716;2023-04-01T16:32:15;10.00;77.90
7902;DHT22;3996;49.674;10.716;2023-04-01T16:34:55;10.00;78.50
7902;DHT22;3996;49.674;10.716;2023-04-01T16:37:27;10.00;79.70
7902;DHT22;3996;49.674;10.716;2023-04-01T16:42:51;10.20;78.60
7902;DHT22;3996;49.674;10.716;2023-04-01T16:48:11;10.30;75.60
7902;DHT22;3996;49.674;10.716;2023-04-01T16:53:40;10.20;76.80
7902;DHT22;3996;49.674;10.716;2023-04-01T16:56:11;10.10;75.70
7902;DHT22;3996;49.674;10.716;2023-04-01T17:11:36;10.10;74.30
7902;DHT22;3996;49.674;10.716;2023-04-01T17:16:41;10.00;75.60
7902;DHT22;3996;49.674;10.716;2023-04-01T17:24:33;9.90;78.00
7902;DHT22;3996;49.674;10.716;2023-04-01T17:29:36;9.90;78.50
7902;DHT22;3996;49.674;10.716;2023-04-01T17:42:34;9.90;78.00
7902;DHT22;3996;49.674;10.716;2023-04-01T17:47:54;9.90;77.40
7902;DHT22;3996;49.674;10.716;2023-04-01T17:52:58;9.90;75.80
7902;DHT22;3996;49.674;10.716;2023-04-01T17:55:52;9.90;75.20
7902;DHT22;3996;49.674;10.716;2023-04-01T18:05:51;9.80;73.70
7902;DHT22;3996;49.674;10.716;2023-04-01T18:08:32;9.80;74.30
7902;DHT22;3996;49.674;10.716;2023-04-01T18:19:09;9.70;75.20
7902;DHT22;3996;49.674;10.716;2023-04-01T18:24:22;9.70;74.10
7902;DHT22;3996;49.674;10.716;2023-04-01T18:26:50;9.60;74.10
7902;DHT22;3996;49.674;10.716;2023-04-01T18:31:45;9.60;75.30
7902;DHT22;3996;49.674;10.716;2023-04-01T18:39:11;9.70;73.20
7902;DHT22;3996;49.674;10.716;2023-04-01T18:47:05;9.70;74.20
7902;DHT22;3996;49.674;10.716;2023-04-01T18:52:17;9.70;73.70
7902;DHT22;3996;49.674;10.716;2023-04-01T18:54:45;9.60;74.60
7902;DHT22;3996;49.674;10.716;2023-04-01T18:57:16;9.60;74.80
7902;DHT22;3996;49.674;10.716;2023-04-01T18:59:57;9.70;74.80
7902;DHT22;3996;49.674;10.716;2023-04-01T19:05:02;9.60;75.40
7902;DHT22;3996;49.674;10.716;2023-04-01T19:07:39;9.60;75.10
7902;DHT22;3996;49.674;10.716;2023-04-01T19:15:22;9.60;74.80
7902;DHT22;3996;49.674;10.716;2023-04-01T19:27:51;9.60;76.70
7902;DHT22;3996;49.674;10.716;2023-04-01T19:32:46;9.60;74.10
7902;DHT22;3996;49.674;10.716;2023-04-01T19:35:26;9.50;75.40
7902;DHT22;3996;49.674;10.716;2023-04-01T19:38:03;9.50;75.70
7902;DHT22;3996;49.674;10.716;2023-04-01T19:50:52;9.60;74.00
7902;DHT22;3996;49.674;10.716;2023-04-01T19:53:23;9.60;74.10
7902;DHT22;3996;49.674;10.716;2023-04-01T20:00:48;9.60;73.60
7902;DHT22;3996;49.674;10.716;2023-04-01T20:16:21;9.60;71.80
7902;DHT22;3996;49.674;10.716;2023-04-01T20:18:57;9.60;71.90
7902;DHT22;3996;49.674;10.716;2023-04-01T20:21:30;9.60;71.40
7902;DHT22;3996;49.674;10.716;2023-04-01T20:24:01;9.50;71.80
7902;DHT22;3996;49.674;10.716;2023-04-01T20:26:37;9.50;72.50
7902;DHT22;3996;49.674;10.716;2023-04-01T20:34:08;9.60;72.90
7902;DHT22;3996;49.674;10.716;2023-04-01T20:36:44;9.50;72.60
7902;DHT22;3996;49.674;10.716;2023-04-01T20:39:20;9.60;71.90
7902;DHT22;3996;49.674;10.716;2023-04-01T20:58:00;9.50;73.10
7902;DHT22;3996;49.674;10.716;2023-04-01T21:11:12;9.50;71.90
7902;DHT22;3996;49.674;10.716;2023-04-01T21:17:10;9.50;71.60
7902;DHT22;3996;49.674;10.716;2023-04-01T21:22:13;9.50;71.00
7902;DHT22;3996;49.674;10.716;2023-04-01T21:24:48;9.60;71.20
7902;DHT22;3996;49.674;10.716;2023-04-01T21:27:37;9.50;71.00
7902;DHT22;3996;49.674;10.716;2023-04-01T21:30:28;9.50;71.20
7902;DHT22;3996;49.674;10.716;2023-04-01T21:38:32;9.50;70.40
7902;DHT22;3996;49.674;10.716;2023-04-01T21:46:11;9.50;71.20
7902;DHT22;3996;49.674;10.716;2023-04-01T21:57:00;9.40;71.70
7902;DHT22;3996;49.674;10.716;2023-04-01T22:05:07;9.40;72.10
7902;DHT22;3996;49.674;10.716;2023-04-01T22:07:41;9.40;71.40
7902;DHT22;3996;49.674;10.716;2023-04-01T22:13:00;9.40;70.90
7902;DHT22;3996;49.674;10.716;2023-04-01T22:18:18;9.40;71.80
7902;DHT22;3996;49.674;10.716;2023-04-01T22:21:51;9.30;72.50
7902;DHT22;3996;49.674;10.716;2023-04-01T22:31:28;9.40;73.60
7902;DHT22;3996;49.674;10.716;2023-04-01T22:36:31;9.40;71.80
7902;DHT22;3996;49.674;10.716;2023-04-01T22:39:04;9.40;71.30
7902;DHT22;3996;49.674;10.716;2023-04-01T22:44:09;9.50;70.20
7902;DHT22;3996;49.674;10.716;2023-04-01T22:49:12;9.40;71.90
7902;DHT22;3996;49.674;10.716;2023-04-01T22:51:55;9.40;70.80
7902;DHT22;3996;49.674;10.716;2023-04-01T22:54:24;9.40;70.80
7902;DHT22;3996;49.674;10.716;2023-04-01T22:56:53;9.40;69.90
7902;DHT22;3996;49.674;10.716;2023-04-01T23:01:59;9.40;70.10
7902;DHT22;3996;49.674;10.716;2023-04-01T23:04:29;9.40;70.10
7902;DHT22;3996;49.674;10.716;2023-04-01T23:06:57;9.40;70.50
7902;DHT22;3996;49.674;10.716;2023-04-01T23:09:26;9.40;71.50
7902;DHT22;3996;49.674;10.716;2023-04-01T23:11:53;9.40;71.50
7902;DHT22;3996;49.674;10.716;2023-04-01T23:16:54;9.40;70.00
7902;DHT22;3996;49.674;10.716;2023-04-01T23:22:10;9.40;70.10
7902;DHT22;3996;49.674;10.716;2023-04-01T23:24:43;9.40;70.20
7902;DHT22;3996;49.674;10.716;2023-04-01T23:27:17;9.30;70.70
7902;DHT22;3996;49.674;10.716;2023-04-01T23:29:44;9.40;71.10
7902;DHT22;3996;49.674;10.716;2023-04-01T23:32:14;9.40;70.70
7902;DHT22;3996;49.674;10.716;2023-04-01T23:34:40;9.40;70.80
7902;DHT22;3996;49.674;10.716;2023-04-01T23:37:11;9.40;71.50
7902;DHT22;3996;49.674;10.716;2023-04-01T23:39:41;9.40;71.70
7902;DHT22;3996;49.674;10.716;2023-04-01T23:42:25;9.40;71.70
7902;DHT22;3996;49.674;10.716;2023-04-01T23:44:56;9.40;71.00
7902;DHT22;3996;49.674;10.716;2023-04-01T23:47:35;9.30;71.70
7902;DHT22;3996;49.674;10.716;2023-04-01T23:55:17;9.30;71.80
7902;DHT22;3996;49.674;10.716;2023-04-01T23:57:43;9.40;72.10
